METAR Data
IDs: Format: Raw Decoded Include TAF

Data at: 0546 UTC 22 Oct 2018

KRZL 220535Z AUTO 20006KT 10SM CLR 03/M02 A3014 RMK AO2